Time;durP1;ratioP1;P1;durP2;ratioP2;P2;SDS_P1;SDS_P2;PMS_P1;PMS_P2;Temp;Humidity;BMP_temperature;BMP_pressure;BME280_temperature;BME280_humidity;BME280_pressure;Samples;Min_cycle;Max_cycle;Signal;HPM_P1;HPM_P2
2022/05/13 00:00:45;;;;;;;3.28;1.70;;;21.70;58.30;;;;;;2526033;53;21599;-89
2022/05/13 00:03:12;;;;;;;3.17;1.60;;;21.70;58.30;;;;;;2301705;55;20993;-88
2022/05/13 00:05:38;;;;;;;2.60;1.48;;;21.70;58.30;;;;;;2277176;55;21042;-89
2022/05/13 00:08:05;;;;;;;3.83;1.90;;;21.70;58.30;;;;;;2526391;52;21454;-89
2022/05/13 00:10:31;;;;;;;3.53;1.95;;;21.70;58.30;;;;;;2281223;55;21047;-89
2022/05/13 00:12:58;;;;;;;2.92;1.80;;;21.70;58.30;;;;;;2293740;55;20914;-90
2022/05/13 00:15:25;;;;;;;3.83;1.87;;;21.60;58.30;;;;;;2527395;53;21004;-89
2022/05/13 00:17:53;;;;;;;4.53;1.95;;;21.50;58.10;;;;;;2528509;53;21278;-89
2022/05/13 00:20:20;;;;;;;3.25;1.62;;;21.60;58.40;;;;;;2279044;55;20951;-89
2022/05/13 00:22:47;;;;;;;3.83;1.58;;;21.60;58.30;;;;;;2297275;55;21009;-89
2022/05/13 00:25:18;;;;;;;3.15;1.58;;;21.60;58.40;;;;;;2528536;53;21345;-90
2022/05/13 00:27:44;;;;;;;3.05;1.50;;;21.70;58.60;;;;;;2532027;52;21001;-90
2022/05/13 00:30:11;;;;;;;2.80;1.55;;;21.60;58.40;;;;;;2527655;53;20922;-88
2022/05/13 00:32:39;;;;;;;4.07;1.95;;;21.60;58.40;;;;;;2531856;53;20990;-91
2022/05/13 00:35:07;;;;;;;3.85;1.90;;;21.60;58.50;;;;;;2532183;52;20939;-88
2022/05/13 00:37:34;;;;;;;3.33;1.58;;;21.50;58.40;;;;;;2532617;52;20941;-88
2022/05/13 00:40:02;;;;;;;3.05;1.73;;;21.60;58.50;;;;;;2530981;53;21025;-89
2022/05/13 00:42:28;;;;;;;3.40;1.58;;;21.50;58.50;;;;;;2529574;52;21015;-87
2022/05/13 00:44:55;;;;;;;3.10;1.60;;;21.50;58.60;;;;;;2532536;52;20926;-87
2022/05/13 00:47:22;;;;;;;2.78;1.52;;;21.40;58.50;;;;;;2285134;54;21003;-89
2022/05/13 00:49:48;;;;;;;2.67;1.52;;;21.40;58.50;;;;;;2530037;52;21037;-89
2022/05/13 00:52:14;;;;;;;3.53;2.03;;;21.30;58.40;;;;;;2295491;55;20938;-88
2022/05/13 00:54:41;;;;;;;2.85;1.73;;;21.50;58.60;;;;;;2299108;55;20980;-89
2022/05/13 00:57:08;;;;;;;3.33;1.80;;;21.40;58.60;;;;;;2530709;52;21042;-90
2022/05/13 00:59:36;;;;;;;3.35;1.83;;;21.50;58.70;;;;;;2527415;53;20982;-88
2022/05/13 01:02:03;;;;;;;3.50;1.92;;;21.40;58.70;;;;;;2530343;53;20912;-87
2022/05/13 01:04:29;;;;;;;5.25;1.80;;;21.50;58.80;;;;;;2530513;53;21710;-89
2022/05/13 01:07:05;;;;;;;3.22;1.80;;;21.40;58.60;;;;;;2301695;55;20909;-90
2022/05/13 01:09:33;;;;;;;3.15;1.80;;;21.40;59.00;;;;;;2295350;55;20967;-86
2022/05/13 01:12:03;;;;;;;2.70;1.48;;;21.40;58.80;;;;;;2531519;54;22243;-88
2022/05/13 01:14:35;;;;;;;3.67;1.35;;;21.40;58.90;;;;;;2279226;55;20993;-89
2022/05/13 01:20:14;;;;;;;2.40;1.33;;;21.30;59.70;;;;;;2299053;55;20956;-90
2022/05/13 01:22:43;;;;;;;2.67;1.50;;;21.30;58.80;;;;;;2280028;55;20931;-89
2022/05/13 01:25:13;;;;;;;2.87;1.50;;;21.40;58.70;;;;;;2527257;53;20950;-89
2022/05/13 01:27:41;;;;;;;3.62;1.87;;;21.30;58.70;;;;;;2292882;55;20967;-88
2022/05/13 01:30:08;;;;;;;3.22;1.55;;;21.30;58.70;;;;;;2506844;53;21062;-90
2022/05/13 01:32:35;;;;;;;3.15;1.70;;;21.30;58.70;;;;;;2279049;55;21709;-89
2022/05/13 01:35:01;;;;;;;3.45;1.80;;;21.30;58.70;;;;;;2528799;53;20979;-88
2022/05/13 01:37:27;;;;;;;3.35;1.70;;;21.20;58.70;;;;;;2527708;53;21135;-89
2022/05/13 01:39:54;;;;;;;2.85;1.55;;;21.20;58.80;;;;;;2530865;54;21007;-88
2022/05/13 01:42:20;;;;;;;4.35;1.50;;;21.20;58.80;;;;;;2529894;52;21310;-88
2022/05/13 01:44:46;;;;;;;2.53;1.40;;;21.20;58.90;;;;;;2293098;55;20926;-88
2022/05/13 01:47:13;;;;;;;3.03;1.75;;;21.20;58.90;;;;;;2527219;53;21937;-89
2022/05/13 01:49:39;;;;;;;3.95;1.80;;;21.20;58.90;;;;;;2293114;55;20982;-89
2022/05/13 01:52:06;;;;;;;3.47;1.75;;;21.20;58.90;;;;;;2529118;53;20959;-86
2022/05/13 01:54:32;;;;;;;3.40;1.62;;;21.10;58.90;;;;;;2529582;54;21805;-88
2022/05/13 01:56:59;;;;;;;2.80;1.60;;;21.10;59.00;;;;;;2526891;54;20946;-88
2022/05/13 01:59:25;;;;;;;3.62;1.77;;;21.10;59.00;;;;;;2527306;54;21030;-88
2022/05/13 02:01:51;;;;;;;4.75;2.20;;;21.10;59.10;;;;;;2527131;55;21007;-87
2022/05/13 02:04:18;;;;;;;3.65;2.00;;;21.10;59.20;;;;;;2527334;53;20951;-86
2022/05/13 02:06:45;;;;;;;4.55;1.83;;;21.10;59.20;;;;;;2526590;53;20931;-87
2022/05/13 02:09:11;;;;;;;4.03;1.90;;;21.10;59.20;;;;;;2527653;55;20998;-87
2022/05/13 02:11:38;;;;;;;3.15;1.70;;;21.20;59.40;;;;;;2279224;55;20934;-88
2022/05/13 02:14:04;;;;;;;3.33;1.75;;;21.10;59.40;;;;;;2531090;54;20930;-86
2022/05/13 02:16:31;;;;;;;3.30;1.67;;;21.10;59.50;;;;;;2527397;55;20990;-89
2022/05/13 02:18:57;;;;;;;3.47;1.83;;;21.20;59.60;;;;;;2526212;54;21002;-89
2022/05/13 02:21:24;;;;;;;4.60;1.90;;;21.20;59.60;;;;;;2293884;55;20970;-89
2022/05/13 02:23:51;;;;;;;3.20;1.70;;;21.10;59.50;;;;;;2527814;55;20963;-89
2022/05/13 02:26:18;;;;;;;3.42;1.90;;;21.10;59.50;;;;;;2293462;55;20910;-89
2022/05/13 02:28:44;;;;;;;3.45;1.65;;;21.20;59.60;;;;;;2529214;54;20940;-88
2022/05/13 02:31:11;;;;;;;3.22;1.67;;;21.10;59.50;;;;;;2527578;54;20903;-88
2022/05/13 02:33:37;;;;;;;4.97;1.58;;;21.10;59.50;;;;;;2529576;53;21477;-87
2022/05/13 02:36:04;;;;;;;4.45;1.87;;;21.20;59.60;;;;;;2529151;54;21759;-86
2022/05/13 02:38:31;;;;;;;3.92;2.25;;;21.20;59.70;;;;;;2506333;54;21333;-90
2022/05/13 02:41:12;;;;;;;5.00;2.55;;;21.20;59.60;;;;;;2290140;55;22235;-89
2022/05/13 02:43:46;;;;;;;4.72;2.40;;;21.20;59.70;;;;;;2530964;52;21048;-91
2022/05/13 02:46:14;;;;;;;4.07;2.30;;;21.20;59.90;;;;;;2517305;53;21896;-89
2022/05/13 02:48:40;;;;;;;3.97;2.10;;;21.20;59.80;;;;;;2523551;53;20931;-88
2022/05/13 02:51:06;;;;;;;4.60;2.25;;;21.10;59.60;;;;;;2529864;52;20946;-90
2022/05/13 02:53:33;;;;;;;4.85;2.03;;;21.20;59.90;;;;;;2531804;52;20939;-91
2022/05/13 02:55:59;;;;;;;3.22;2.15;;;21.20;59.90;;;;;;2527378;53;21127;-92
2022/05/13 02:58:26;;;;;;;3.72;2.05;;;21.20;59.90;;;;;;2279257;55;132399;-77
2022/05/13 03:00:52;;;;;;;4.00;2.30;;;21.20;59.90;;;;;;2478244;55;20924;-77
2022/05/13 03:03:19;;;;;;;3.42;1.60;;;21.20;60.00;;;;;;2475631;55;21139;-77
2022/05/13 03:05:45;;;;;;;2.80;1.62;;;21.20;60.20;;;;;;2257706;56;20988;-78
2022/05/13 03:08:11;;;;;;;4.03;2.40;;;21.20;60.10;;;;;;2253581;56;21003;-77
2022/05/13 03:10:38;;;;;;;4.05;2.40;;;21.20;60.10;;;;;;2331383;55;20928;-78
2022/05/13 03:13:05;;;;;;;4.60;2.37;;;21.20;60.10;;;;;;2379791;55;21024;-77
2022/05/13 03:15:31;;;;;;;3.65;2.30;;;21.30;60.20;;;;;;2261087;56;21022;-77
2022/05/13 03:17:58;;;;;;;4.35;2.47;;;21.30;60.20;;;;;;2233424;56;20966;-77
2022/05/13 03:20:33;;;;;;;4.07;2.10;;;21.30;60.10;;;;;;2259088;56;21496;-77
2022/05/13 03:22:59;;;;;;;3.30;1.98;;;21.30;60.40;;;;;;2257606;56;21752;-78
2022/05/13 03:25:25;;;;;;;3.42;2.05;;;21.30;60.10;;;;;;2248938;56;21404;-77
2022/05/13 03:27:52;;;;;;;3.15;1.80;;;21.30;60.00;;;;;;2225394;56;21026;-77
2022/05/13 03:30:20;;;;;;;3.25;1.80;;;21.30;60.00;;;;;;2223695;56;21017;-77
2022/05/13 03:32:46;;;;;;;4.20;1.90;;;21.40;60.10;;;;;;2459045;55;21017;-78
2022/05/13 03:35:13;;;;;;;5.35;2.10;;;21.40;60.00;;;;;;2257516;55;20985;-77
2022/05/13 03:37:39;;;;;;;2.85;1.73;;;21.40;60.00;;;;;;2301308;55;22003;-78
2022/05/13 03:40:07;;;;;;;3.50;1.98;;;21.40;60.00;;;;;;2215530;56;21993;-77
2022/05/13 03:42:36;;;;;;;4.12;2.00;;;21.40;60.00;;;;;;2235809;56;21108;-78
2022/05/13 03:45:04;;;;;;;3.20;1.87;;;21.40;60.10;;;;;;2233669;56;21046;-77
2022/05/13 03:47:31;;;;;;;4.00;1.90;;;21.40;60.00;;;;;;2429362;55;20994;-78
2022/05/13 03:49:57;;;;;;;3.85;2.37;;;21.40;60.00;;;;;;2364372;55;20998;-78
2022/05/13 03:52:23;;;;;;;3.20;2.10;;;21.40;60.10;;;;;;2271688;56;21964;-80
2022/05/13 03:54:54;;;;;;;2.85;1.65;;;21.40;60.00;;;;;;2328027;55;20984;-79
2022/05/13 03:57:21;;;;;;;3.35;2.17;;;21.40;60.30;;;;;;2228514;56;21096;-79
2022/05/13 03:59:47;;;;;;;3.37;2.10;;;21.40;60.10;;;;;;2296765;55;21074;-78
2022/05/13 04:02:13;;;;;;;3.45;1.92;;;21.40;60.10;;;;;;2235372;56;20996;-78
2022/05/13 04:10:11;;;;;;;3.62;1.95;;;21.40;60.10;;;;;;2233085;56;21496;-78
2022/05/13 04:18:51;;;;;;;3.08;1.80;;;21.40;60.40;;;;;;2458618;55;21403;-77
2022/05/13 04:21:25;;;;;;;2.95;1.80;;;21.40;60.00;;;;;;2221694;56;21030;-77
2022/05/13 04:23:54;;;;;;;3.65;1.83;;;21.40;60.20;;;;;;2236056;56;20992;-77
2022/05/13 04:26:20;;;;;;;3.50;2.00;;;21.40;60.10;;;;;;2235251;56;20953;-77
2022/05/13 04:28:51;;;;;;;3.90;2.33;;;21.40;60.20;;;;;;2458824;55;21293;-78
2022/05/13 04:31:42;;;;;;;4.32;1.98;;;21.40;60.30;;;;;;2235177;56;21531;-79
2022/05/13 04:34:11;;;;;;;3.60;2.20;;;21.40;60.70;;;;;;2298809;55;21049;-78
2022/05/13 04:36:38;;;;;;;5.32;2.40;;;21.40;60.20;;;;;;2313223;56;21041;-78
2022/05/13 04:39:32;;;;;;;3.80;2.37;;;21.40;60.30;;;;;;2223315;56;21067;-78
2022/05/13 04:44:43;;;;;;;5.78;2.20;;;21.40;60.30;;;;;;2233835;56;20977;-77
2022/05/13 04:50:06;;;;;;;3.60;2.12;;;21.40;60.30;;;;;;2224817;56;21505;-77
2022/05/13 04:52:33;;;;;;;4.20;1.95;;;21.40;60.70;;;;;;2247034;56;21027;-78
2022/05/13 04:55:03;;;;;;;3.20;1.90;;;21.40;60.40;;;;;;2486498;55;20935;-77
2022/05/13 04:57:29;;;;;;;3.80;2.05;;;21.40;60.50;;;;;;2258670;56;20959;-77
2022/05/13 04:59:58;;;;;;;3.42;2.33;;;21.40;60.50;;;;;;2257641;56;20983;-79
2022/05/13 05:02:36;;;;;;;5.47;2.27;;;21.40;60.70;;;;;;2251615;55;21389;-77
2022/05/13 05:05:02;;;;;;;3.37;2.20;;;21.40;60.70;;;;;;2262803;56;20972;-77
2022/05/13 05:07:29;;;;;;;3.87;2.28;;;21.40;60.40;;;;;;2257764;56;20963;-77
2022/05/13 05:09:56;;;;;;;5.65;3.15;;;21.40;60.50;;;;;;2261527;55;20967;-78
2022/05/13 05:12:24;;;;;;;5.97;3.30;;;21.40;60.50;;;;;;2261421;55;21008;-77
2022/05/13 05:14:51;;;;;;;4.78;3.03;;;21.40;60.50;;;;;;2288829;55;20959;-77
2022/05/13 05:17:17;;;;;;;4.10;2.80;;;21.40;60.50;;;;;;2341016;55;21936;-77
2022/05/13 05:19:44;;;;;;;5.28;3.50;;;21.40;60.50;;;;;;2266378;55;20952;-79
2022/05/13 05:22:10;;;;;;;4.43;3.05;;;21.40;60.50;;;;;;2254915;56;21067;-77
2022/05/13 05:24:36;;;;;;;5.40;2.50;;;21.40;60.50;;;;;;2258370;56;21668;-79
2022/05/13 05:27:05;;;;;;;3.83;2.37;;;21.40;60.50;;;;;;2485876;55;20967;-77
2022/05/13 05:29:32;;;;;;;4.72;3.00;;;21.40;60.50;;;;;;2245064;55;25079;-78
2022/05/13 05:31:58;;;;;;;4.20;2.83;;;21.40;60.60;;;;;;2484111;55;20984;-78
2022/05/13 05:34:24;;;;;;;6.15;2.65;;;21.50;60.70;;;;;;2335755;55;20951;-78
2022/05/13 05:36:50;;;;;;;4.72;2.53;;;21.50;60.70;;;;;;2254646;56;21079;-77
2022/05/13 05:39:17;;;;;;;4.80;2.15;;;21.50;60.70;;;;;;2247842;56;21016;-77
2022/05/13 05:41:43;;;;;;;6.55;1.95;;;21.50;60.60;;;;;;2251106;55;21027;-78
2022/05/13 05:44:10;;;;;;;4.57;2.03;;;21.50;60.50;;;;;;2252307;56;21074;-77
2022/05/13 05:46:37;;;;;;;4.25;1.90;;;21.50;60.40;;;;;;2258127;56;21031;-77
2022/05/13 05:49:05;;;;;;;5.30;2.20;;;21.50;60.30;;;;;;2360627;55;22503;-77
2022/05/13 05:51:34;;;;;;;4.45;2.33;;;21.50;60.30;;;;;;2246836;55;21075;-77
2022/05/13 05:59:29;;;;;;;4.68;2.72;;;21.40;60.40;;;;;;2254800;55;21583;-79
2022/05/13 06:01:56;;;;;;;4.43;2.62;;;21.40;60.60;;;;;;2254257;55;20951;-80
2022/05/13 06:04:22;;;;;;;4.25;2.53;;;21.40;61.40;;;;;;2485239;55;20971;-80
2022/05/13 06:06:48;;;;;;;5.05;2.70;;;21.40;60.80;;;;;;2436040;55;20978;-80
2022/05/13 06:09:16;;;;;;;4.20;2.95;;;21.40;60.90;;;;;;2431680;55;21007;-80
2022/05/13 06:11:42;;;;;;;6.22;2.35;;;21.40;60.90;;;;;;2258932;55;20935;-79
2022/05/13 06:14:11;;;;;;;4.53;2.33;;;21.40;60.90;;;;;;2263799;55;21100;-79
2022/05/13 06:16:38;;;;;;;4.93;2.55;;;21.40;60.90;;;;;;2317051;55;21472;-79
2022/05/13 06:19:07;;;;;;;3.53;2.12;;;21.40;60.90;;;;;;2300001;55;21009;-80
2022/05/13 06:21:34;;;;;;;3.92;2.45;;;21.40;60.80;;;;;;2254507;56;20979;-81
2022/05/13 06:24:00;;;;;;;5.03;2.30;;;21.40;60.80;;;;;;2286090;55;20976;-80
2022/05/13 06:26:26;;;;;;;5.25;2.45;;;21.40;60.80;;;;;;2254310;55;20944;-80
2022/05/13 06:28:53;;;;;;;4.00;2.12;;;21.40;60.90;;;;;;2254274;55;20991;-80
2022/05/13 06:31:20;;;;;;;3.28;2.10;;;21.40;60.90;;;;;;2248742;55;21015;-80
2022/05/13 06:33:46;;;;;;;4.43;2.50;;;21.40;60.90;;;;;;2285075;55;21026;-80
2022/05/13 06:36:13;;;;;;;4.87;2.08;;;21.40;60.90;;;;;;2253314;55;21043;-81
2022/05/13 06:38:39;;;;;;;3.55;2.42;;;21.40;60.50;;;;;;2250875;56;20975;-80
2022/05/13 06:41:05;;;;;;;4.30;1.90;;;21.30;59.80;;;;;;2303089;55;20991;-81
2022/05/13 06:43:32;;;;;;;4.85;2.10;;;21.30;59.50;;;;;;2333931;55;21070;-80
2022/05/13 06:46:00;;;;;;;3.75;1.65;;;21.30;59.30;;;;;;2334262;55;20927;-80
2022/05/13 06:48:26;;;;;;;3.97;1.90;;;21.20;59.20;;;;;;2295609;55;20951;-80
2022/05/13 06:50:53;;;;;;;3.28;1.33;;;21.10;59.20;;;;;;2348378;55;21047;-80
2022/05/13 06:53:19;;;;;;;4.43;1.35;;;21.10;59.30;;;;;;2250010;55;21044;-80
2022/05/13 06:55:46;;;;;;;2.85;1.37;;;21.10;59.20;;;;;;2305581;55;21119;-80
2022/05/13 06:58:12;;;;;;;2.90;1.23;;;21.10;59.20;;;;;;2485821;55;21011;-79
2022/05/13 07:00:39;;;;;;;2.47;1.20;;;21.00;59.00;;;;;;2269078;55;20987;-80
2022/05/13 07:03:06;;;;;;;2.53;1.12;;;21.00;59.00;;;;;;2269201;55;20972;-80
2022/05/13 07:05:32;;;;;;;2.78;1.50;;;21.00;58.90;;;;;;2410402;55;20983;-80
2022/05/13 07:07:59;;;;;;;3.17;1.17;;;21.00;59.00;;;;;;2257786;56;21031;-80
2022/05/13 07:10:25;;;;;;;4.12;1.23;;;21.00;58.90;;;;;;2253512;55;21007;-80
2022/05/13 07:12:51;;;;;;;3.90;1.17;;;20.90;58.80;;;;;;2274216;55;21000;-80
2022/05/13 07:15:19;;;;;;;3.12;1.25;;;20.90;58.80;;;;;;2260009;56;20915;-79
2022/05/13 07:17:47;;;;;;;4.50;1.10;;;20.90;58.90;;;;;;2262246;55;21039;-80
2022/05/13 07:20:16;;;;;;;2.78;1.05;;;20.90;58.90;;;;;;2349450;56;20983;-81
2022/05/13 07:22:42;;;;;;;2.60;1.08;;;20.90;58.80;;;;;;2258224;56;21015;-80
2022/05/13 07:25:09;;;;;;;3.10;1.00;;;20.90;58.80;;;;;;2258228;56;20939;-79
2022/05/13 07:27:36;;;;;;;3.80;1.10;;;20.90;58.80;;;;;;2258357;56;20983;-81
2022/05/13 07:30:06;;;;;;;3.15;1.08;;;20.90;58.90;;;;;;2314225;55;21043;-80
2022/05/13 07:32:38;;;;;;;3.92;1.20;;;20.80;58.90;;;;;;2288127;55;20948;-80
2022/05/13 07:35:05;;;;;;;3.25;1.20;;;20.90;58.90;;;;;;2335580;55;20995;-80
2022/05/13 07:37:32;;;;;;;3.20;1.20;;;20.90;59.10;;;;;;2251828;56;21048;-80
2022/05/13 07:42:44;;;;;;;3.90;1.30;;;20.80;58.90;;;;;;2251100;55;20982;-80
2022/05/13 07:45:13;;;;;;;2.50;0.95;;;20.90;58.90;;;;;;2253542;55;21035;-80
2022/05/13 07:47:42;;;;;;;4.82;1.33;;;20.90;59.00;;;;;;2387234;55;21082;-79
2022/05/13 07:50:14;;;;;;;3.65;1.27;;;20.90;59.00;;;;;;2257738;56;21031;-80
2022/05/13 07:52:41;;;;;;;3.05;0.88;;;20.90;59.10;;;;;;2257554;56;20935;-79
2022/05/13 07:55:15;;;;;;;3.55;1.00;;;20.90;59.00;;;;;;2361974;55;21055;-80
2022/05/13 07:57:43;;;;;;;2.17;0.90;;;20.90;59.00;;;;;;2245615;56;21027;-79
2022/05/13 08:00:29;;;;;;;4.87;1.00;;;21.00;59.00;;;;;;2258027;56;20935;-80
2022/05/13 08:03:05;;;;;;;2.60;0.95;;;21.00;58.90;;;;;;2269445;55;20979;-80
2022/05/13 08:05:42;;;;;;;2.87;0.90;;;21.00;59.00;;;;;;2308327;55;20967;-80
2022/05/13 08:08:21;;;;;;;3.33;0.95;;;21.10;58.80;;;;;;2329710;55;21033;-79
2022/05/13 08:10:50;;;;;;;3.03;1.10;;;21.10;58.60;;;;;;2272185;55;21039;-78
2022/05/13 08:13:16;;;;;;;2.83;1.00;;;21.10;58.50;;;;;;2486235;55;21656;-79
2022/05/13 08:15:43;;;;;;;2.47;1.00;;;21.10;58.50;;;;;;2385302;55;21003;-79
2022/05/13 08:18:09;;;;;;;3.22;1.17;;;21.20;58.60;;;;;;2330349;55;21038;-79
2022/05/13 08:20:39;;;;;;;3.30;1.15;;;21.20;58.70;;;;;;2486449;55;20984;-79
2022/05/13 08:23:05;;;;;;;3.83;1.00;;;21.20;58.70;;;;;;2377257;56;20968;-80
2022/05/13 08:25:32;;;;;;;2.67;1.05;;;21.20;58.70;;;;;;2308197;55;20947;-80
2022/05/13 08:27:58;;;;;;;3.17;1.00;;;21.30;58.60;;;;;;2267206;55;20955;-80
2022/05/13 08:30:26;;;;;;;3.30;0.93;;;21.30;58.50;;;;;;2258168;56;21495;-79
2022/05/13 08:32:52;;;;;;;3.87;1.40;;;21.30;58.40;;;;;;2258220;56;21011;-79
2022/05/13 08:35:21;;;;;;;3.42;1.05;;;21.30;58.50;;;;;;2257664;56;21664;-79
2022/05/13 08:37:51;;;;;;;3.20;0.95;;;21.40;58.70;;;;;;2258195;56;20995;-79
2022/05/13 08:41:51;;;;;;;3.28;0.90;;;21.40;58.80;;;;;;2258154;56;20995;-79
2022/05/13 08:44:18;;;;;;;3.92;0.90;;;21.40;58.90;;;;;;2411309;55;20955;-79
2022/05/13 08:47:17;;;;;;;1.98;0.90;;;21.50;58.70;;;;;;2287129;56;20976;-80
2022/05/13 08:55:27;;;;;;;3.17;0.93;;;21.60;58.60;;;;;;2273564;55;21001;-78
2022/05/13 08:57:55;;;;;;;2.87;1.00;;;21.60;58.40;;;;;;2258125;56;20992;-79
2022/05/13 09:00:33;;;;;;;3.00;1.00;;;21.70;58.50;;;;;;2281645;55;21003;-77
2022/05/13 09:03:25;;;;;;;2.87;1.00;;;21.70;58.40;;;;;;2362572;55;21003;-78
2022/05/13 09:06:02;;;;;;;3.77;1.10;;;21.80;58.50;;;;;;2281169;55;21055;-79
2022/05/13 09:08:34;;;;;;;4.03;1.00;;;21.80;58.40;;;;;;2257752;56;21302;-79
2022/05/13 09:11:16;;;;;;;2.33;1.00;;;21.80;58.20;;;;;;2257494;56;21007;-79
2022/05/13 09:18:26;;;;;;;3.05;1.15;;;21.90;57.90;;;;;;2283206;55;20971;-78
2022/05/13 09:20:56;;;;;;;2.90;1.20;;;22.00;58.00;;;;;;2281037;55;20976;-78
2022/05/13 09:23:22;;;;;;;3.60;1.15;;;22.10;58.00;;;;;;2278926;55;20986;-78
2022/05/13 09:26:18;;;;;;;4.25;1.12;;;22.20;58.30;;;;;;2278347;55;21032;-79
2022/05/13 09:29:01;;;;;;;3.40;1.33;;;22.30;57.90;;;;;;2258335;56;20963;-77
2022/05/13 09:31:28;;;;;;;3.53;1.20;;;22.40;57.90;;;;;;2354260;55;21004;-78
2022/05/13 09:35:10;;;;;;;2.72;1.02;;;22.50;58.30;;;;;;2258867;56;20979;-77
2022/05/13 09:37:43;;;;;;;5.47;1.55;;;22.70;58.20;;;;;;2468631;55;21011;-78
2022/05/13 09:40:21;;;;;;;4.97;1.80;;;22.90;58.00;;;;;;2397076;55;20964;-78
2022/05/13 09:42:49;;;;;;;3.97;1.50;;;23.10;57.40;;;;;;2292163;55;20955;-78
2022/05/13 09:45:29;;;;;;;4.50;1.27;;;23.10;58.00;;;;;;2261103;55;20990;-77
2022/05/13 09:48:29;;;;;;;3.45;1.30;;;23.30;57.20;;;;;;2248830;55;21019;-78
2022/05/13 09:50:59;;;;;;;4.07;1.30;;;23.30;56.70;;;;;;2260981;55;21726;-78
2022/05/13 09:53:30;;;;;;;3.55;1.40;;;23.40;56.70;;;;;;2249629;55;20978;-78
2022/05/13 09:56:01;;;;;;;4.17;1.40;;;23.30;56.30;;;;;;2469411;55;21035;-77
2022/05/13 09:58:37;;;;;;;4.97;1.48;;;23.40;56.40;;;;;;2249954;55;21054;-77
2022/05/13 10:01:09;;;;;;;3.47;1.40;;;23.40;56.20;;;;;;2258185;55;21055;-78
2022/05/13 10:03:37;;;;;;;3.85;1.40;;;23.40;56.20;;;;;;2362263;55;21042;-79
2022/05/13 10:06:37;;;;;;;3.90;1.27;;;23.40;56.20;;;;;;2259008;55;20995;-78
2022/05/13 10:16:16;;;;;;;2.92;1.42;;;23.50;56.00;;;;;;2293777;56;21035;-77
2022/05/13 10:18:55;;;;;;;4.35;1.35;;;23.60;55.80;;;;;;2485671;55;20947;-77
2022/05/13 10:22:58;;;;;;;4.43;1.23;;;23.60;55.60;;;;;;2463653;55;20968;-77
2022/05/13 10:25:31;;;;;;;3.00;0.90;;;23.60;55.70;;;;;;2251159;55;21024;-78
2022/05/13 10:28:01;;;;;;;5.70;1.60;;;23.60;55.60;;;;;;2284415;55;20975;-77
2022/05/13 10:30:45;;;;;;;3.42;1.30;;;23.60;55.60;;;;;;2255069;55;21552;-78
2022/05/13 10:33:25;;;;;;;4.15;1.35;;;23.60;55.40;;;;;;2396319;55;20979;-77
2022/05/13 10:36:10;;;;;;;4.12;1.30;;;23.60;55.20;;;;;;2353629;55;20983;-79
2022/05/13 10:40:08;;;;;;;3.25;1.15;;;23.60;55.10;;;;;;2258085;56;21419;-78
2022/05/13 10:42:40;;;;;;;3.65;1.02;;;23.60;54.80;;;;;;2255353;55;21102;-77
2022/05/13 10:45:25;;;;;;;2.58;1.08;;;23.60;54.80;;;;;;2240457;55;21016;-77
2022/05/13 10:48:34;;;;;;;2.90;1.33;;;23.60;54.80;;;;;;2251621;56;21515;-77
2022/05/13 10:51:08;;;;;;;3.03;1.30;;;23.50;54.70;;;;;;2311215;55;21011;-78
2022/05/13 10:54:02;;;;;;;3.70;1.40;;;23.60;54.90;;;;;;2449386;55;21011;-77
2022/05/13 10:56:48;;;;;;;3.22;1.20;;;23.50;54.40;;;;;;2258060;56;21023;-77
2022/05/13 11:03:05;;;;;;;4.95;0.90;;;23.50;54.50;;;;;;2258078;56;21872;-77
2022/05/13 11:08:19;;;;;;;3.10;0.90;;;23.50;53.90;;;;;;2257967;56;21075;-78
2022/05/13 11:11:08;;;;;;;2.58;0.80;;;23.50;53.70;;;;;;2370558;55;21896;-78
2022/05/13 11:13:53;;;;;;;2.85;1.08;;;23.40;53.70;;;;;;2232791;56;21008;-77
2022/05/13 11:20:10;;;;;;;2.28;0.85;;;23.40;53.40;;;;;;2423701;55;20960;-79
2022/05/13 11:22:38;;;;;;;;;;;23.40;53.50;;;;;;2261728;56;21016;-78
2022/05/13 11:27:56;;;;;;;2.30;0.82;;;23.40;53.50;;;;;;2259031;55;20085;-77
2022/05/13 11:30:32;;;;;;;2.78;1.05;;;23.40;53.00;;;;;;2258170;56;21710;-77
2022/05/13 11:33:02;;;;;;;2.83;0.93;;;23.40;53.10;;;;;;2277236;55;20979;-77
2022/05/13 11:37:03;;;;;;;3.97;0.80;;;23.40;53.10;;;;;;2485036;55;21782;-77
2022/05/13 11:41:48;;;;;;;2.55;0.80;;;23.50;53.00;;;;;;2257830;56;21099;-78
2022/05/13 11:48:43;;;;;;;3.25;0.82;;;23.50;52.80;;;;;;2258357;56;21010;-77
2022/05/13 11:51:20;;;;;;;3.40;1.08;;;23.60;53.00;;;;;;2258115;55;21276;-77
2022/05/13 11:53:54;;;;;;;4.12;1.02;;;23.70;52.80;;;;;;2246199;55;20947;-77
2022/05/13 11:56:32;;;;;;;3.55;0.93;;;23.80;52.90;;;;;;2395370;55;20959;-77
2022/05/13 11:59:10;;;;;;;2.80;1.00;;;23.80;52.80;;;;;;2485698;55;21015;-76
2022/05/13 12:03:14;;;;;;;3.03;0.98;;;23.90;53.10;;;;;;2257435;56;21004;-77
2022/05/13 12:06:14;;;;;;;2.78;0.98;;;24.10;52.70;;;;;;2373244;56;20996;-77
2022/05/13 12:08:48;;;;;;;2.58;0.90;;;24.20;52.60;;;;;;2258103;56;21027;-77
2022/05/13 12:18:22;;;;;;;3.08;1.20;;;24.30;52.40;;;;;;2485981;55;21407;-77
2022/05/13 12:21:03;;;;;;;;;;;24.60;52.30;;;;;;2212353;55;3081032;-77
2022/05/13 12:23:50;;;;;;;2.58;0.88;;;24.70;52.00;;;;;;2280167;55;20146;-77
2022/05/13 12:26:21;;;;;;;3.17;1.08;;;24.80;51.80;;;;;;2257880;56;20951;-77
2022/05/13 12:29:15;;;;;;;3.20;1.10;;;24.90;52.10;;;;;;2257756;56;21479;-77
2022/05/13 12:41:16;;;;;;;3.20;0.90;;;25.20;51.90;;;;;;2481669;55;20995;-78
2022/05/13 12:44:48;;;;;;;2.45;0.90;;;25.30;51.00;;;;;;2229365;56;21007;-77
2022/05/13 12:47:19;;;;;;;2.67;0.90;;;25.40;50.70;;;;;;2259084;56;21022;-78
2022/05/13 12:50:11;;;;;;;3.77;1.10;;;25.40;50.60;;;;;;2256229;55;21031;-77
2022/05/13 12:52:39;;;;;;;3.60;1.02;;;25.50;50.20;;;;;;2253326;55;20908;-77
2022/05/13 12:55:28;;;;;;;3.47;0.80;;;25.50;50.40;;;;;;2275522;55;21544;-77
2022/05/13 12:58:04;;;;;;;2.87;1.17;;;25.50;50.30;;;;;;2257876;55;20955;-78
2022/05/13 13:00:36;;;;;;;2.58;0.93;;;25.60;50.20;;;;;;2258995;55;21019;-80
2022/05/13 13:03:06;;;;;;;4.00;1.50;;;25.60;50.00;;;;;;2473815;55;21004;-78
2022/05/13 13:05:33;;;;;;;2.30;0.90;;;25.70;49.80;;;;;;2240290;55;21476;-78
2022/05/13 13:08:19;;;;;;;4.15;1.12;;;25.70;49.80;;;;;;2252212;55;21039;-77
2022/05/13 13:10:57;;;;;;;2.40;1.00;;;25.70;49.30;;;;;;2259165;55;20951;-78
2022/05/13 13:15:11;;;;;;;3.08;0.80;;;25.80;49.50;;;;;;2345323;55;20948;-78
2022/05/13 13:17:41;;;;;;;;;;;25.90;49.20;;;;;;2261642;56;21749;-79
2022/05/13 13:20:09;;;;;;;3.55;1.00;;;25.90;49.30;;;;;;2257803;56;20141;-78
2022/05/13 13:22:43;;;;;;;3.67;0.88;;;25.90;49.30;;;;;;2258176;56;20976;-78
2022/05/13 13:25:22;;;;;;;5.45;1.00;;;26.00;49.30;;;;;;2258383;56;20972;-77
2022/05/13 13:27:49;;;;;;;3.05;0.95;;;26.00;49.70;;;;;;2356532;55;20938;-77
2022/05/13 13:30:19;;;;;;;3.28;0.90;;;26.10;49.70;;;;;;2245440;55;21506;-77
2022/05/13 13:32:47;;;;;;;5.47;1.00;;;26.20;49.40;;;;;;2260748;56;20966;-77
2022/05/13 13:35:13;;;;;;;2.95;0.88;;;26.30;49.00;;;;;;2258221;56;21031;-78
2022/05/13 13:37:40;;;;;;;3.35;0.88;;;26.30;48.80;;;;;;2258344;56;21448;-80
2022/05/13 13:40:39;;;;;;;4.85;1.08;;;26.40;48.50;;;;;;2258149;56;21028;-80
2022/05/13 13:43:10;;;;;;;3.05;1.00;;;26.50;47.90;;;;;;2273865;55;20980;-76
2022/05/13 13:45:36;;;;;;;2.15;0.82;;;26.50;48.30;;;;;;2258143;56;21008;-77
2022/05/13 13:48:08;;;;;;;2.50;1.05;;;26.60;48.60;;;;;;2289493;55;21453;-77
2022/05/13 13:50:40;;;;;;;2.45;0.80;;;26.70;48.20;;;;;;2273459;55;20964;-77
2022/05/13 13:53:06;;;;;;;3.62;0.80;;;26.80;48.20;;;;;;2257611;56;21007;-77
2022/05/13 13:55:35;;;;;;;2.45;1.00;;;26.80;47.90;;;;;;2264654;55;21437;-77
2022/05/13 13:58:32;;;;;;;4.05;1.00;;;26.90;47.40;;;;;;2258059;56;20959;-77
2022/05/13 14:01:44;;;;;;;2.40;1.02;;;27.00;46.60;;;;;;2353744;55;20991;-78
2022/05/13 14:04:15;;;;;;;2.65;1.00;;;27.10;46.60;;;;;;2258280;56;20935;-77
2022/05/13 14:06:42;;;;;;;4.25;1.20;;;27.20;47.00;;;;;;2257919;56;20980;-80
2022/05/13 14:09:27;;;;;;;3.20;1.20;;;27.20;46.90;;;;;;2257856;56;20972;-77
2022/05/13 14:11:54;;;;;;;2.55;1.00;;;27.30;46.80;;;;;;2257948;56;20960;-77
2022/05/13 14:14:29;;;;;;;4.20;1.40;;;27.40;46.90;;;;;;2259492;56;20995;-77
2022/05/13 14:17:05;;;;;;;3.95;0.77;;;27.40;46.50;;;;;;2258151;56;21035;-78
2022/05/13 14:19:37;;;;;;;2.05;0.77;;;27.50;46.30;;;;;;2485156;55;21393;-77
2022/05/13 14:22:05;;;;;;;2.33;1.00;;;27.60;46.20;;;;;;2257670;56;21054;-77
2022/05/13 14:24:36;;;;;;;3.47;1.30;;;27.60;46.20;;;;;;2257729;56;21019;-77
2022/05/13 14:27:21;;;;;;;3.22;1.23;;;27.70;45.50;;;;;;2258042;56;21107;-77
2022/05/13 14:29:48;;;;;;;3.20;1.05;;;27.70;44.80;;;;;;2261528;55;21091;-78
2022/05/13 14:32:16;;;;;;;2.78;1.02;;;27.80;45.30;;;;;;2250464;55;21098;-77
2022/05/13 14:34:42;;;;;;;2.05;0.70;;;27.70;44.80;;;;;;2251092;56;20955;-78
2022/05/13 14:37:12;;;;;;;6.03;0.98;;;27.70;44.80;;;;;;2355952;55;21001;-77
2022/05/13 14:39:51;;;;;;;1.83;0.88;;;27.70;44.50;;;;;;2245128;55;21048;-77